createdAt,value
2019-04-01T00:01:42.088Z,1.40
2019-04-01T00:04:12.309Z,1.80
2019-04-01T00:06:42.545Z,2.47
2019-04-01T00:09:12.840Z,1.70
2019-04-01T00:11:43.089Z,1.80
2019-04-01T00:14:13.241Z,2.20
2019-04-01T00:16:43.533Z,1.83
2019-04-01T00:19:13.664Z,2.85
2019-04-01T00:21:44.714Z,2.40
2019-04-01T00:24:15.136Z,1.80
2019-04-01T00:26:45.408Z,1.77
2019-04-01T00:29:15.537Z,1.90
2019-04-01T00:31:45.681Z,1.90
2019-04-01T00:34:26.006Z,2.10
2019-04-01T00:37:03.448Z,2.27
2019-04-01T00:39:33.622Z,2.30
2019-04-01T00:42:17.716Z,1.73
2019-04-01T00:44:47.845Z,1.90
2019-04-01T00:47:17.985Z,2.12
2019-04-01T00:49:48.215Z,1.20
2019-04-01T00:52:18.284Z,1.47
2019-04-01T00:54:48.418Z,1.60
2019-04-01T00:57:18.633Z,1.53
2019-04-01T00:59:48.691Z,1.50
2019-04-01T01:02:18.872Z,1.80
2019-04-01T01:04:49.010Z,1.92
2019-04-01T01:07:19.098Z,1.75
2019-04-01T01:09:49.314Z,1.53
2019-04-01T01:12:19.444Z,1.70
2019-04-01T01:14:49.673Z,1.80
2019-04-01T01:17:19.865Z,1.70
2019-04-01T01:19:50.064Z,1.73
2019-04-01T01:22:20.465Z,1.97
2019-04-01T01:24:50.835Z,1.50
2019-04-01T01:27:21.094Z,1.60
2019-04-01T01:29:51.628Z,1.83
2019-04-01T01:32:22.207Z,1.50
2019-04-01T01:34:52.604Z,1.60
2019-04-01T01:37:25.881Z,1.60
2019-04-01T01:39:56.702Z,1.70
2019-04-01T01:42:27.248Z,1.47
2019-04-01T01:44:57.596Z,1.73
2019-04-01T01:47:28.112Z,1.70
2019-04-01T01:49:58.543Z,1.70
2019-04-01T01:52:30.376Z,1.63
2019-04-01T01:55:00.801Z,1.63
2019-04-01T01:57:31.348Z,1.50
2019-04-01T02:00:01.761Z,1.60
2019-04-01T02:02:32.035Z,1.50
2019-04-01T02:05:02.431Z,1.50
2019-04-01T02:07:33.043Z,1.80
2019-04-01T02:10:03.591Z,1.40
2019-04-01T02:12:33.956Z,2.10
2019-04-01T02:15:04.762Z,1.50
2019-04-01T02:17:35.580Z,1.67
2019-04-01T02:20:07.097Z,1.62
2019-04-01T02:22:37.697Z,1.97
2019-04-01T02:25:08.235Z,2.20
2019-04-01T02:27:38.621Z,1.40
2019-04-01T02:30:08.853Z,1.63
2019-04-01T02:32:38.928Z,1.50
2019-04-01T02:35:09.132Z,1.57
2019-04-01T02:37:39.378Z,1.47
2019-04-01T02:40:09.737Z,1.53
2019-04-01T02:42:39.911Z,1.27
2019-04-01T02:45:13.075Z,1.73
2019-04-01T02:47:43.277Z,1.40
2019-04-01T02:50:13.663Z,1.47
2019-04-01T02:52:43.903Z,1.50
2019-04-01T02:55:14.218Z,2.47
2019-04-01T02:57:44.368Z,1.60
2019-04-01T03:00:15.023Z,1.50
2019-04-01T03:02:45.537Z,1.43
2019-04-01T03:05:15.830Z,1.43
2019-04-01T03:07:46.081Z,1.67
2019-04-01T03:10:18.077Z,1.60
2019-04-01T03:12:48.316Z,1.60
2019-04-01T03:15:18.472Z,1.73
2019-04-01T03:17:49.225Z,1.60
2019-04-01T03:20:19.307Z,1.50
2019-04-01T03:22:49.460Z,1.30
2019-04-01T03:25:19.692Z,1.90
2019-04-01T03:27:49.848Z,1.70
2019-04-01T03:30:19.969Z,1.70
2019-04-01T03:32:50.340Z,2.00
2019-04-01T03:35:20.698Z,1.62
2019-04-01T03:37:50.901Z,1.37
2019-04-01T03:40:21.065Z,2.10
2019-04-01T03:42:51.300Z,1.50
2019-04-01T03:45:21.523Z,1.50
2019-04-01T03:47:51.663Z,1.80
2019-04-01T03:50:21.866Z,1.37
2019-04-01T03:52:52.083Z,1.60
2019-04-01T03:55:22.249Z,1.40
2019-04-01T03:57:52.483Z,1.60
2019-04-01T04:00:22.693Z,1.70
2019-04-01T04:02:52.906Z,2.00
2019-04-01T04:05:23.133Z,1.97
2019-04-01T04:07:53.400Z,1.50
2019-04-01T04:10:23.472Z,1.57
2019-04-01T04:12:53.531Z,1.47
2019-04-01T04:15:25.324Z,1.65
2019-04-01T04:17:55.471Z,1.80
2019-04-01T04:20:25.690Z,1.47
2019-04-01T04:22:55.814Z,1.77
2019-04-01T04:25:26.053Z,1.80
2019-04-01T04:27:56.206Z,1.80
2019-04-01T04:30:26.506Z,1.77
2019-04-01T04:32:56.729Z,1.60
2019-04-01T04:35:26.871Z,1.80
2019-04-01T04:37:57.111Z,1.40
2019-04-01T04:40:27.458Z,1.50
2019-04-01T04:42:57.721Z,1.80
2019-04-01T04:45:27.928Z,1.77
2019-04-01T04:47:58.043Z,1.67
2019-04-01T04:50:28.286Z,1.87
2019-04-01T04:52:58.587Z,1.80
2019-04-01T04:55:28.907Z,1.87
2019-04-01T04:57:59.094Z,1.67
2019-04-01T05:00:29.346Z,1.93
2019-04-01T05:02:59.552Z,1.70
2019-04-01T05:05:29.644Z,1.80
2019-04-01T05:07:59.889Z,1.87
2019-04-01T05:10:30.218Z,2.33
2019-04-01T05:13:00.370Z,2.10
2019-04-01T05:15:30.552Z,2.00
2019-04-01T05:18:07.134Z,2.53
2019-04-01T05:20:41.359Z,2.07
2019-04-01T05:23:21.432Z,2.10
2019-04-01T05:25:52.506Z,2.33
2019-04-01T05:28:24.257Z,2.80
2019-04-01T05:30:57.194Z,1.83
2019-04-01T05:33:29.263Z,2.00
2019-04-01T05:35:59.465Z,2.10
2019-04-01T05:38:33.139Z,3.17
2019-04-01T05:41:03.359Z,2.20
2019-04-01T05:43:33.568Z,2.40
2019-04-01T05:46:03.880Z,2.30
2019-04-01T05:48:34.187Z,2.00
2019-04-01T05:51:07.520Z,2.70
2019-04-01T05:53:39.695Z,2.10
2019-04-01T05:56:10.175Z,2.20
2019-04-01T05:58:40.751Z,2.13
2019-04-01T06:01:14.690Z,2.00
2019-04-01T06:03:44.998Z,2.07
2019-04-01T06:06:15.445Z,2.20
2019-04-01T06:08:45.996Z,2.23
2019-04-01T06:11:21.951Z,2.40
2019-04-01T06:13:52.287Z,2.00
2019-04-01T06:16:22.656Z,2.10
2019-04-01T06:18:53.078Z,2.52
2019-04-01T06:21:23.505Z,2.47
2019-04-01T06:23:53.736Z,2.80
2019-04-01T06:26:23.960Z,2.80
2019-04-01T06:28:54.191Z,2.60
2019-04-01T06:31:26.499Z,2.70
2019-04-01T06:33:57.062Z,2.80
2019-04-01T06:36:27.349Z,3.57
2019-04-01T06:39:00.439Z,2.97
2019-04-01T06:41:30.747Z,2.97
2019-04-01T06:44:01.023Z,3.50
2019-04-01T06:46:31.330Z,3.77
2019-04-01T06:49:01.490Z,3.30
2019-04-01T06:51:31.898Z,4.00
2019-04-01T06:54:02.173Z,3.70
2019-04-01T06:56:32.247Z,3.47
2019-04-01T06:59:02.467Z,3.93
2019-04-01T07:01:32.844Z,3.40
2019-04-01T07:04:03.099Z,4.40
2019-04-01T07:06:33.330Z,3.77
2019-04-01T07:09:05.168Z,4.50
2019-04-01T07:11:35.677Z,4.60
2019-04-01T07:14:07.611Z,4.37
2019-04-01T07:16:40.018Z,4.83
2019-04-01T07:19:11.018Z,4.17
2019-04-01T07:21:44.246Z,5.20
2019-04-01T07:24:14.592Z,3.77
2019-04-01T07:26:44.886Z,4.77
2019-04-01T07:29:18.113Z,4.30
2019-04-01T07:31:48.297Z,4.40
2019-04-01T07:34:18.456Z,4.78
2019-04-01T07:36:53.352Z,4.60
2019-04-01T07:39:24.750Z,5.00
2019-04-01T07:41:54.955Z,5.03
2019-04-01T07:44:25.185Z,5.23
2019-04-01T07:46:55.430Z,5.03
2019-04-01T07:49:25.713Z,4.70
2019-04-01T07:51:56.398Z,5.33
2019-04-01T07:54:31.722Z,4.97
2019-04-01T07:57:02.822Z,4.92
2019-04-01T07:59:33.293Z,4.50
2019-04-01T08:02:03.586Z,4.77
2019-04-01T08:04:35.254Z,5.80
2019-04-01T08:07:06.840Z,5.77
2019-04-01T08:09:37.242Z,4.07
2019-04-01T08:12:07.420Z,4.17
2019-04-01T08:14:37.704Z,5.10
2019-04-01T08:17:08.075Z,3.90
2019-04-01T08:19:38.373Z,4.77
2019-04-01T08:22:08.780Z,4.27
2019-04-01T08:24:39.065Z,4.13
2019-04-01T08:27:11.191Z,4.50
2019-04-01T08:29:41.423Z,3.30
2019-04-01T08:32:13.856Z,3.50
2019-04-01T08:34:43.644Z,3.42
2019-04-01T08:37:13.857Z,3.10
2019-04-01T08:39:44.160Z,3.23
2019-04-01T08:42:16.473Z,3.10
2019-04-01T08:44:51.293Z,2.53
2019-04-01T08:47:21.603Z,3.67
2019-04-01T08:49:51.838Z,2.53
2019-04-01T08:52:22.144Z,2.87
2019-04-01T08:54:52.505Z,3.13
2019-04-01T08:57:22.781Z,3.20
2019-04-01T08:59:56.486Z,2.90
2019-04-01T09:02:27.028Z,2.97
2019-04-01T09:04:57.321Z,3.10
2019-04-01T09:07:28.123Z,2.70
2019-04-01T09:09:59.380Z,2.87
2019-04-01T09:12:30.076Z,2.40
2019-04-01T09:15:00.547Z,2.53
2019-04-01T09:17:30.793Z,3.10
2019-04-01T09:20:04.239Z,2.90
2019-04-01T09:22:34.458Z,2.67
2019-04-01T09:25:05.037Z,2.83
2019-04-01T09:27:35.342Z,3.33
2019-04-01T09:30:08.461Z,2.70
2019-04-01T09:32:38.783Z,2.90
2019-04-01T09:35:09.226Z,2.80
2019-04-01T09:37:39.589Z,2.70
2019-04-01T09:40:14.523Z,3.20
2019-04-01T09:42:47.032Z,2.87
2019-04-01T09:45:17.513Z,2.40
2019-04-01T09:47:50.164Z,2.60
2019-04-01T09:50:25.566Z,2.80
2019-04-01T09:52:58.900Z,3.00
2019-04-01T09:55:29.066Z,2.70
2019-04-01T09:58:05.562Z,4.43
2019-04-01T10:00:38.894Z,2.97
2019-04-01T10:03:09.260Z,2.93
2019-04-01T10:05:43.593Z,2.60
2019-04-01T10:08:13.985Z,2.20
2019-04-01T10:10:46.558Z,3.27
2019-04-01T10:13:18.087Z,2.20
2019-04-01T10:15:48.404Z,2.73
2019-04-01T10:18:20.821Z,2.50
2019-04-01T10:20:53.557Z,2.60
2019-04-01T10:23:23.839Z,2.50
2019-04-01T10:25:54.317Z,2.60
2019-04-01T10:28:25.930Z,2.60
2019-04-01T10:30:56.355Z,2.97
2019-04-01T10:33:26.611Z,2.60
2019-04-01T10:35:57.001Z,2.90
2019-04-01T10:38:27.251Z,2.83
2019-04-01T10:40:57.424Z,2.63
2019-04-01T10:43:27.715Z,3.00
2019-04-01T10:45:57.986Z,2.90
2019-04-01T10:48:28.166Z,3.27
2019-04-01T10:50:58.405Z,2.30
2019-04-01T10:53:28.746Z,2.90
2019-04-01T10:55:59.019Z,2.77
2019-04-01T10:58:30.822Z,2.97
2019-04-01T11:01:01.694Z,2.73
2019-04-01T11:03:32.189Z,3.33
2019-04-01T11:06:02.478Z,3.70
2019-04-01T11:08:34.947Z,2.80
2019-04-01T11:11:05.248Z,3.00
2019-04-01T11:13:35.651Z,3.30
2019-04-01T11:16:07.181Z,2.43
2019-04-01T11:18:37.543Z,2.27
2019-04-01T11:21:07.803Z,3.27
2019-04-01T11:23:38.142Z,3.03
2019-04-01T11:26:08.643Z,2.50
2019-04-01T11:28:38.852Z,2.40
2019-04-01T11:31:09.194Z,2.80
2019-04-01T11:33:39.553Z,2.90
2019-04-01T11:36:09.876Z,2.60
2019-04-01T11:38:40.210Z,2.20
2019-04-01T11:41:10.554Z,2.60
2019-04-01T11:43:40.882Z,3.13
2019-04-01T11:46:12.631Z,3.13
2019-04-01T11:48:43.319Z,3.00
2019-04-01T11:51:13.617Z,2.80
2019-04-01T11:53:45.538Z,3.63
2019-04-01T11:56:15.837Z,2.90
2019-04-01T11:58:46.004Z,2.27
2019-04-01T12:01:16.338Z,2.53
2019-04-01T12:03:46.710Z,2.83
2019-04-01T12:06:16.985Z,2.57
2019-04-01T12:08:47.231Z,2.80
2019-04-01T12:11:18.834Z,2.70
2019-04-01T12:13:49.152Z,3.10
2019-04-01T12:16:21.226Z,2.87
2019-04-01T12:18:51.475Z,2.63
2019-04-01T12:21:21.706Z,2.55
2019-04-01T12:23:52.045Z,2.60
2019-04-01T12:26:22.283Z,3.20
2019-04-01T12:28:52.488Z,2.80
2019-04-01T12:31:22.733Z,2.93
2019-04-01T12:33:53.598Z,3.23
2019-04-01T12:36:25.837Z,3.27
2019-04-01T12:38:56.143Z,2.70
2019-04-01T12:41:26.506Z,2.80
2019-04-01T12:43:56.907Z,2.87
2019-04-01T12:46:27.231Z,2.53
2019-04-01T12:48:57.509Z,2.77
2019-04-01T12:51:28.180Z,3.30
2019-04-01T12:53:58.568Z,3.10
2019-04-01T12:56:28.780Z,3.30
2019-04-01T12:58:58.945Z,3.17
2019-04-01T13:01:29.212Z,3.80
2019-04-01T13:04:04.312Z,2.73
2019-04-01T13:06:35.945Z,3.27
2019-04-01T13:09:08.882Z,2.87
2019-04-01T13:11:39.216Z,3.50
2019-04-01T13:14:13.714Z,3.63
2019-04-01T13:16:46.945Z,3.03
2019-04-01T13:19:19.448Z,3.50
2019-04-01T13:21:49.708Z,3.37
2019-04-01T13:24:20.109Z,3.30
2019-04-01T13:26:50.969Z,3.77
2019-04-01T13:29:24.609Z,3.80
2019-04-01T13:31:54.975Z,3.00
2019-04-01T13:34:25.321Z,2.63
2019-04-01T13:36:55.506Z,3.17
2019-04-01T13:39:25.905Z,3.20
2019-04-01T13:41:56.489Z,3.40
2019-04-01T13:44:36.997Z,3.10
2019-04-01T13:46:58.739Z,2.60
2019-04-01T13:49:29.010Z,3.20
2019-04-01T13:52:01.877Z,2.80
2019-04-01T13:54:33.950Z,3.77
2019-04-01T13:57:04.228Z,3.23
2019-04-01T13:59:48.454Z,2.90
2019-04-01T14:02:07.967Z,4.00
2019-04-01T14:05:00.396Z,2.90
2019-04-01T14:07:32.164Z,2.97
2019-04-01T14:10:02.384Z,3.23
2019-04-01T14:12:34.191Z,2.93
2019-04-01T14:15:04.967Z,3.33
2019-04-01T14:17:37.811Z,3.60
2019-04-01T14:20:08.471Z,2.90
2019-04-01T14:22:44.338Z,3.03
2019-04-01T14:25:14.508Z,2.55
2019-04-01T14:27:46.587Z,5.57
2019-04-01T14:30:18.717Z,3.50
2019-04-01T14:32:52.226Z,2.83
2019-04-01T14:35:25.955Z,2.90
2019-04-01T14:37:58.331Z,2.33
2019-04-01T14:40:32.624Z,2.35
2019-04-01T14:43:08.022Z,2.70
2019-04-01T14:45:40.010Z,4.95
2019-04-01T14:48:10.334Z,2.67
2019-04-01T14:50:40.493Z,2.50
2019-04-01T14:53:11.408Z,2.77
2019-04-01T14:55:43.743Z,2.30
2019-04-01T14:58:14.153Z,2.95
2019-04-01T15:00:44.494Z,3.02
2019-04-01T15:03:17.158Z,2.57
2019-04-01T15:05:48.188Z,4.33
2019-04-01T15:08:19.616Z,2.37
2019-04-01T15:10:53.238Z,3.80
2019-04-01T15:13:23.627Z,3.45
2019-04-01T15:15:53.902Z,2.30
2019-04-01T15:18:24.138Z,2.40
2019-04-01T15:20:56.627Z,2.20
2019-04-01T15:23:34.267Z,2.97
2019-04-01T15:26:06.421Z,2.40
2019-04-01T15:28:36.696Z,2.58
2019-04-01T15:31:06.986Z,2.58
2019-04-01T15:33:37.196Z,2.50
2019-04-01T15:36:07.427Z,2.60
2019-04-01T15:38:37.558Z,2.80
2019-04-01T15:41:07.833Z,2.60
2019-04-01T15:43:38.016Z,2.58
2019-04-01T15:46:08.151Z,3.00
2019-04-01T15:48:38.484Z,3.00
2019-04-01T15:51:08.808Z,2.90
2019-04-01T15:53:42.897Z,3.40
2019-04-01T15:56:13.226Z,3.20
2019-04-01T15:58:45.219Z,3.10
2019-04-01T16:01:15.531Z,2.67
2019-04-01T16:03:45.920Z,3.20
2019-04-01T16:06:16.238Z,3.43
2019-04-01T16:08:46.449Z,3.25
2019-04-01T16:11:16.774Z,3.20
2019-04-01T16:13:47.112Z,3.52
2019-04-01T16:16:20.784Z,3.87
2019-04-01T16:18:50.969Z,3.80
2019-04-01T16:21:24.055Z,3.17
2019-04-01T16:23:54.455Z,3.10
2019-04-01T16:26:27.943Z,3.10
2019-04-01T16:28:58.205Z,3.20
2019-04-01T16:31:28.462Z,2.95
2019-04-01T16:33:58.661Z,2.60
2019-04-01T16:36:29.102Z,2.70
2019-04-01T16:38:59.485Z,2.75
2019-04-01T16:41:31.386Z,2.70
2019-04-01T16:44:05.110Z,2.83
2019-04-01T16:46:40.955Z,2.72
2019-04-01T16:49:11.353Z,2.88
2019-04-01T16:51:41.603Z,3.05
2019-04-01T16:54:11.870Z,2.84
2019-04-01T16:56:44.954Z,3.22
2019-04-01T16:59:15.427Z,2.60
2019-04-01T17:01:47.071Z,2.47
2019-04-01T17:04:26.484Z,2.75
2019-04-01T17:06:56.842Z,2.30
2019-04-01T17:09:30.347Z,1.93
2019-04-01T17:12:02.258Z,1.90
2019-04-01T17:14:35.219Z,2.33
2019-04-01T17:17:05.539Z,2.03
2019-04-01T17:19:35.779Z,2.20
2019-04-01T17:22:11.568Z,2.97
2019-04-01T17:24:42.000Z,2.70
2019-04-01T17:27:14.010Z,2.83
2019-04-01T17:29:46.512Z,2.85
2019-04-01T17:32:16.852Z,2.50
2019-04-01T17:34:47.080Z,2.30
2019-04-01T17:37:17.525Z,2.25
2019-04-01T17:39:47.871Z,2.23
2019-04-01T17:42:18.149Z,2.40
2019-04-01T17:44:50.139Z,2.47
2019-04-01T17:47:20.379Z,2.50
2019-04-01T17:49:50.646Z,2.53
2019-04-01T17:52:20.780Z,2.65
2019-04-01T17:54:51.321Z,2.43
2019-04-01T17:57:23.811Z,2.37
2019-04-01T17:59:59.237Z,3.00
2019-04-01T18:02:33.700Z,2.90
2019-04-01T18:05:05.567Z,2.80
2019-04-01T18:07:41.106Z,2.80
2019-04-01T18:10:11.658Z,2.65
2019-04-01T18:12:43.196Z,2.20
2019-04-01T18:15:14.019Z,3.15
2019-04-01T18:17:44.656Z,3.30
2019-04-01T18:20:15.588Z,3.37
2019-04-01T18:22:46.568Z,4.37
2019-04-01T18:25:18.853Z,4.43
2019-04-01T18:27:49.885Z,4.50
2019-04-01T18:30:21.313Z,3.90
2019-04-01T18:32:55.264Z,4.10
2019-04-01T18:35:25.457Z,4.13
2019-04-01T18:37:56.386Z,3.90
2019-04-01T18:40:32.973Z,3.97
2019-04-01T18:43:00.158Z,3.20
2019-04-01T18:45:32.159Z,3.27
2019-04-01T18:48:02.955Z,2.90
2019-04-01T18:50:33.542Z,2.73
2019-04-01T18:53:04.278Z,3.20
2019-04-01T18:55:35.102Z,2.67
2019-04-01T18:58:05.791Z,3.20
2019-04-01T19:00:36.442Z,2.87
2019-04-01T19:03:07.832Z,2.83
2019-04-01T19:05:39.996Z,3.23
2019-04-01T19:08:13.608Z,3.20
2019-04-01T19:10:47.392Z,3.73
2019-04-01T19:13:25.995Z,2.90
2019-04-01T19:16:04.946Z,3.63
2019-04-01T19:18:39.416Z,3.37
2019-04-01T19:21:12.508Z,3.97
2019-04-01T19:23:43.793Z,4.03
2019-04-01T19:26:15.249Z,3.98
2019-04-01T19:31:20.920Z,4.53
2019-04-01T19:33:51.435Z,4.40
2019-04-01T19:36:21.997Z,3.60
2019-04-01T19:38:54.257Z,3.90
2019-04-01T19:41:24.660Z,3.75
2019-04-01T19:43:55.080Z,3.70
2019-04-01T19:46:25.590Z,3.90
2019-04-01T19:48:56.037Z,4.27
2019-04-01T19:51:27.286Z,4.10
2019-04-01T19:53:59.064Z,5.23
2019-04-01T19:56:30.183Z,4.80
2019-04-01T19:59:01.572Z,5.70
2019-04-01T20:01:32.065Z,4.67
2019-04-01T20:04:05.350Z,7.57
2019-04-01T20:06:40.814Z,5.10
2019-04-01T20:09:11.525Z,4.20
2019-04-01T20:11:42.126Z,4.80
2019-04-01T20:14:13.633Z,4.08
2019-04-01T20:16:46.901Z,4.23
2019-04-01T20:19:16.631Z,4.20
2019-04-01T20:21:47.689Z,3.90
2019-04-01T20:24:19.269Z,4.17
2019-04-01T20:26:51.823Z,3.50
2019-04-01T20:29:22.444Z,4.65
2019-04-01T20:31:53.237Z,4.20
2019-04-01T20:34:23.684Z,5.33
2019-04-01T20:36:54.218Z,4.23
2019-04-01T20:39:25.270Z,5.23
2019-04-01T20:42:06.971Z,4.60
2019-04-01T20:44:35.212Z,5.72
2019-04-01T20:47:05.959Z,6.47
2019-04-01T20:49:40.604Z,5.00
2019-04-01T20:52:11.230Z,5.00
2019-04-01T20:54:42.468Z,4.47
2019-04-01T20:57:13.221Z,3.80
2019-04-01T20:59:43.964Z,3.77
2019-04-01T21:02:14.675Z,4.17
2019-04-01T21:04:46.113Z,4.10
2019-04-01T21:07:18.234Z,4.33
2019-04-01T21:09:48.917Z,4.10
2019-04-01T21:12:19.395Z,4.30
2019-04-01T21:14:50.040Z,3.77
2019-04-01T21:17:20.938Z,3.50
2019-04-01T21:19:54.391Z,3.77
2019-04-01T21:22:25.237Z,4.40
2019-04-01T21:24:55.785Z,4.17
2019-04-01T21:27:27.224Z,4.00
2019-04-01T21:29:58.980Z,3.53
2019-04-01T21:32:32.335Z,4.40
2019-04-01T21:35:02.822Z,4.63
2019-04-01T21:37:35.016Z,4.70
2019-04-01T21:40:06.559Z,5.07
2019-04-01T21:42:37.141Z,5.20
2019-04-01T21:45:08.538Z,5.43
2019-04-01T21:47:39.017Z,5.00
2019-04-01T21:50:09.996Z,5.17
2019-04-01T21:52:40.469Z,5.33
2019-04-01T21:55:11.545Z,5.50
2019-04-01T21:57:42.187Z,4.23
2019-04-01T22:00:18.043Z,5.07
2019-04-01T22:02:48.673Z,4.77
2019-04-01T22:05:19.112Z,4.90
2019-04-01T22:07:49.637Z,4.10
2019-04-01T22:10:20.171Z,4.13
2019-04-01T22:12:52.556Z,3.90
2019-04-01T22:15:22.897Z,4.17
2019-04-01T22:20:31.156Z,4.17
2019-04-01T22:23:01.713Z,3.57
2019-04-01T22:25:33.305Z,3.65
2019-04-01T22:28:03.544Z,3.57
2019-04-01T22:30:33.668Z,3.70
2019-04-01T22:33:03.853Z,3.50
2019-04-01T22:35:38.757Z,3.67
2019-04-01T22:38:06.714Z,3.73
2019-04-01T22:40:37.076Z,3.47
2019-04-01T22:43:07.385Z,4.10
2019-04-01T22:45:37.671Z,3.93
2019-04-01T22:48:07.881Z,4.03
2019-04-01T22:50:38.250Z,4.73
2019-04-01T22:53:09.497Z,4.60
2019-04-01T22:55:39.653Z,4.90
2019-04-01T22:58:09.759Z,4.60
2019-04-01T23:00:39.913Z,4.97
2019-04-01T23:03:10.434Z,5.03
2019-04-01T23:05:41.633Z,4.90
2019-04-01T23:08:11.799Z,4.90
2019-04-01T23:10:41.860Z,5.03
2019-04-01T23:13:12.004Z,4.83
2019-04-01T23:15:43.165Z,7.07
2019-04-01T23:18:14.338Z,5.93
2019-04-01T23:20:45.372Z,5.30
2019-04-01T23:23:15.585Z,5.00
2019-04-01T23:25:45.798Z,4.73
2019-04-01T23:28:16.018Z,4.30
2019-04-01T23:30:46.213Z,4.00
2019-04-01T23:33:16.705Z,3.67
2019-04-01T23:35:46.893Z,3.90
2019-04-01T23:38:17.080Z,3.90
2019-04-01T23:40:47.356Z,3.70
2019-04-01T23:43:17.495Z,3.90
2019-04-01T23:45:47.619Z,3.60
2019-04-01T23:48:20.137Z,4.07
2019-04-01T23:50:50.375Z,4.00
2019-04-01T23:53:20.511Z,4.40
2019-04-01T23:55:50.696Z,3.83
2019-04-01T23:58:22.337Z,4.30
